sensor_id;sensor_type;location;lat;lon;timestamp;P1;durP1;ratioP1;P2;durP2;ratioP2
15002;SDS011;7597;53.590;10.020;2022-12-10T00:00:42;62.67;;;24.10;;
15002;SDS011;7597;53.590;10.020;2022-12-10T00:06:08;79.93;;;30.83;;
15002;SDS011;7597;53.590;10.020;2022-12-10T00:08:54;63.80;;;25.90;;
15002;SDS011;7597;53.590;10.020;2022-12-10T00:11:39;57.80;;;24.10;;
15002;SDS011;7597;53.590;10.020;2022-12-10T00:17:01;53.63;;;22.63;;
15002;SDS011;7597;53.590;10.020;2022-12-10T00:19:41;58.57;;;23.73;;
15002;SDS011;7597;53.590;10.020;2022-12-10T00:22:18;57.13;;;22.13;;
15002;SDS011;7597;53.590;10.020;2022-12-10T00:27:53;55.00;;;22.07;;
15002;SDS011;7597;53.590;10.020;2022-12-10T00:30:34;49.40;;;20.70;;
15002;SDS011;7597;53.590;10.020;2022-12-10T00:33:09;47.87;;;19.37;;
15002;SDS011;7597;53.590;10.020;2022-12-10T00:35:46;47.77;;;20.23;;
15002;SDS011;7597;53.590;10.020;2022-12-10T00:38:29;48.47;;;21.57;;
15002;SDS011;7597;53.590;10.020;2022-12-10T00:44:01;45.23;;;18.97;;
15002;SDS011;7597;53.590;10.020;2022-12-10T00:46:47;44.43;;;19.70;;
15002;SDS011;7597;53.590;10.020;2022-12-10T00:49:25;43.30;;;18.77;;
15002;SDS011;7597;53.590;10.020;2022-12-10T00:52:06;45.47;;;18.77;;
15002;SDS011;7597;53.590;10.020;2022-12-10T00:54:52;47.07;;;20.70;;
15002;SDS011;7597;53.590;10.020;2022-12-10T00:57:34;48.60;;;19.00;;
15002;SDS011;7597;53.590;10.020;2022-12-10T01:02:55;45.50;;;19.50;;
15002;SDS011;7597;53.590;10.020;2022-12-10T01:05:37;46.50;;;18.77;;
15002;SDS011;7597;53.590;10.020;2022-12-10T01:08:19;54.37;;;18.90;;
15002;SDS011;7597;53.590;10.020;2022-12-10T01:11:08;49.17;;;19.07;;
15002;SDS011;7597;53.590;10.020;2022-12-10T01:13:39;50.37;;;20.43;;
15002;SDS011;7597;53.590;10.020;2022-12-10T01:19:03;46.07;;;19.60;;
15002;SDS011;7597;53.590;10.020;2022-12-10T01:21:54;49.50;;;20.53;;
15002;SDS011;7597;53.590;10.020;2022-12-10T01:24:32;47.63;;;19.83;;
15002;SDS011;7597;53.590;10.020;2022-12-10T01:27:13;47.80;;;19.53;;
15002;SDS011;7597;53.590;10.020;2022-12-10T01:29:52;51.60;;;21.43;;
15002;SDS011;7597;53.590;10.020;2022-12-10T01:32:26;49.70;;;20.90;;
15002;SDS011;7597;53.590;10.020;2022-12-10T01:35:04;44.83;;;19.03;;
15002;SDS011;7597;53.590;10.020;2022-12-10T01:37:44;49.83;;;20.07;;
15002;SDS011;7597;53.590;10.020;2022-12-10T01:40:36;77.57;;;32.97;;
15002;SDS011;7597;53.590;10.020;2022-12-10T01:43:14;46.50;;;19.27;;
15002;SDS011;7597;53.590;10.020;2022-12-10T01:45:56;39.07;;;16.40;;
15002;SDS011;7597;53.590;10.020;2022-12-10T01:51:13;46.17;;;19.27;;
15002;SDS011;7597;53.590;10.020;2022-12-10T01:53:49;41.03;;;18.00;;
15002;SDS011;7597;53.590;10.020;2022-12-10T02:01:53;33.90;;;15.97;;
15002;SDS011;7597;53.590;10.020;2022-12-10T02:04:32;35.93;;;15.60;;
15002;SDS011;7597;53.590;10.020;2022-12-10T02:07:28;37.73;;;15.67;;
15002;SDS011;7597;53.590;10.020;2022-12-10T02:10:15;33.27;;;16.23;;
15002;SDS011;7597;53.590;10.020;2022-12-10T02:13:08;33.43;;;15.03;;
15002;SDS011;7597;53.590;10.020;2022-12-10T02:15:58;33.77;;;15.07;;
15002;SDS011;7597;53.590;10.020;2022-12-10T02:18:49;33.53;;;15.20;;
15002;SDS011;7597;53.590;10.020;2022-12-10T02:21:34;32.90;;;15.70;;
15002;SDS011;7597;53.590;10.020;2022-12-10T02:24:11;36.10;;;15.87;;
15002;SDS011;7597;53.590;10.020;2022-12-10T02:29:32;33.37;;;14.70;;
15002;SDS011;7597;53.590;10.020;2022-12-10T02:32:21;33.27;;;15.20;;
15002;SDS011;7597;53.590;10.020;2022-12-10T02:34:54;29.77;;;14.60;;
15002;SDS011;7597;53.590;10.020;2022-12-10T02:37:49;30.43;;;14.10;;
15002;SDS011;7597;53.590;10.020;2022-12-10T02:40:24;33.17;;;15.23;;
15002;SDS011;7597;53.590;10.020;2022-12-10T02:43:01;33.47;;;14.50;;
15002;SDS011;7597;53.590;10.020;2022-12-10T02:45:45;32.53;;;13.97;;
15002;SDS011;7597;53.590;10.020;2022-12-10T02:50:50;28.97;;;13.47;;
15002;SDS011;7597;53.590;10.020;2022-12-10T02:53:40;26.43;;;12.77;;
15002;SDS011;7597;53.590;10.020;2022-12-10T03:10:32;26.53;;;13.03;;
15002;SDS011;7597;53.590;10.020;2022-12-10T03:13:13;24.83;;;12.93;;
15002;SDS011;7597;53.590;10.020;2022-12-10T03:15:44;29.80;;;14.17;;
15002;SDS011;7597;53.590;10.020;2022-12-10T03:18:26;28.07;;;14.33;;
15002;SDS011;7597;53.590;10.020;2022-12-10T03:21:02;28.03;;;13.13;;
15002;SDS011;7597;53.590;10.020;2022-12-10T03:23:32;29.17;;;12.77;;
15002;SDS011;7597;53.590;10.020;2022-12-10T03:26:07;22.37;;;11.97;;
15002;SDS011;7597;53.590;10.020;2022-12-10T03:28:50;21.77;;;10.97;;
15002;SDS011;7597;53.590;10.020;2022-12-10T03:31:26;22.77;;;11.80;;
15002;SDS011;7597;53.590;10.020;2022-12-10T03:34:07;26.33;;;12.97;;
15002;SDS011;7597;53.590;10.020;2022-12-10T03:39:31;20.53;;;11.43;;
15002;SDS011;7597;53.590;10.020;2022-12-10T03:42:01;19.73;;;10.10;;
15002;SDS011;7597;53.590;10.020;2022-12-10T03:47:24;18.20;;;11.37;;
15002;SDS011;7597;53.590;10.020;2022-12-10T03:49:59;22.10;;;11.67;;
15002;SDS011;7597;53.590;10.020;2022-12-10T03:55:28;24.70;;;12.23;;
15002;SDS011;7597;53.590;10.020;2022-12-10T03:58:07;20.53;;;11.07;;
15002;SDS011;7597;53.590;10.020;2022-12-10T04:03:34;19.87;;;11.40;;
15002;SDS011;7597;53.590;10.020;2022-12-10T04:06:15;16.13;;;10.00;;
15002;SDS011;7597;53.590;10.020;2022-12-10T04:11:32;19.00;;;10.33;;
15002;SDS011;7597;53.590;10.020;2022-12-10T04:14:05;19.10;;;10.67;;
15002;SDS011;7597;53.590;10.020;2022-12-10T04:19:29;17.07;;;9.87;;
15002;SDS011;7597;53.590;10.020;2022-12-10T04:22:14;18.53;;;11.03;;
15002;SDS011;7597;53.590;10.020;2022-12-10T04:25:01;17.37;;;10.40;;
15002;SDS011;7597;53.590;10.020;2022-12-10T04:27:45;16.40;;;9.47;;
15002;SDS011;7597;53.590;10.020;2022-12-10T04:30:16;17.83;;;10.50;;
15002;SDS011;7597;53.590;10.020;2022-12-10T04:32:50;17.20;;;9.53;;
15002;SDS011;7597;53.590;10.020;2022-12-10T04:35:33;16.03;;;10.23;;
15002;SDS011;7597;53.590;10.020;2022-12-10T04:38:08;18.03;;;9.53;;
15002;SDS011;7597;53.590;10.020;2022-12-10T04:40:51;17.77;;;10.37;;
15002;SDS011;7597;53.590;10.020;2022-12-10T04:43:32;18.37;;;10.60;;
15002;SDS011;7597;53.590;10.020;2022-12-10T04:46:12;17.10;;;10.83;;
15002;SDS011;7597;53.590;10.020;2022-12-10T04:48:44;16.43;;;9.80;;
15002;SDS011;7597;53.590;10.020;2022-12-10T04:51:18;18.70;;;10.27;;
15002;SDS011;7597;53.590;10.020;2022-12-10T04:56:43;19.13;;;10.57;;
15002;SDS011;7597;53.590;10.020;2022-12-10T04:59:25;16.33;;;10.43;;
15002;SDS011;7597;53.590;10.020;2022-12-10T05:02:19;17.53;;;10.23;;
15002;SDS011;7597;53.590;10.020;2022-12-10T05:04:51;17.37;;;10.53;;
15002;SDS011;7597;53.590;10.020;2022-12-10T05:10:37;16.80;;;10.00;;
15002;SDS011;7597;53.590;10.020;2022-12-10T05:13:18;16.00;;;10.40;;
15002;SDS011;7597;53.590;10.020;2022-12-10T05:16:01;22.10;;;12.37;;
15002;SDS011;7597;53.590;10.020;2022-12-10T05:18:39;18.13;;;10.47;;
15002;SDS011;7597;53.590;10.020;2022-12-10T05:21:20;19.07;;;11.27;;
15002;SDS011;7597;53.590;10.020;2022-12-10T05:23:54;17.37;;;9.87;;
15002;SDS011;7597;53.590;10.020;2022-12-10T05:26:29;18.37;;;10.03;;
15002;SDS011;7597;53.590;10.020;2022-12-10T05:29:09;16.37;;;10.87;;
15002;SDS011;7597;53.590;10.020;2022-12-10T05:31:54;17.93;;;10.10;;
15002;SDS011;7597;53.590;10.020;2022-12-10T05:34:42;17.00;;;10.10;;
15002;SDS011;7597;53.590;10.020;2022-12-10T05:37:19;16.23;;;10.57;;
15002;SDS011;7597;53.590;10.020;2022-12-10T05:42:50;17.67;;;10.63;;
15002;SDS011;7597;53.590;10.020;2022-12-10T05:45:31;15.63;;;8.93;;
15002;SDS011;7597;53.590;10.020;2022-12-10T05:47:59;16.87;;;10.27;;
15002;SDS011;7597;53.590;10.020;2022-12-10T05:50:39;17.77;;;10.07;;
15002;SDS011;7597;53.590;10.020;2022-12-10T05:53:25;14.60;;;9.50;;
15002;SDS011;7597;53.590;10.020;2022-12-10T05:56:02;13.90;;;9.47;;
15002;SDS011;7597;53.590;10.020;2022-12-10T05:58:32;15.57;;;9.83;;
15002;SDS011;7597;53.590;10.020;2022-12-10T06:06:29;19.70;;;10.23;;
15002;SDS011;7597;53.590;10.020;2022-12-10T06:09:12;18.47;;;11.07;;
15002;SDS011;7597;53.590;10.020;2022-12-10T06:11:46;19.40;;;10.73;;
15002;SDS011;7597;53.590;10.020;2022-12-10T06:14:22;14.40;;;10.13;;
15002;SDS011;7597;53.590;10.020;2022-12-10T06:17:05;16.50;;;10.13;;
15002;SDS011;7597;53.590;10.020;2022-12-10T06:19:41;15.23;;;9.73;;
15002;SDS011;7597;53.590;10.020;2022-12-10T06:22:17;15.70;;;10.37;;
15002;SDS011;7597;53.590;10.020;2022-12-10T06:24:58;19.27;;;11.23;;
15002;SDS011;7597;53.590;10.020;2022-12-10T06:27:49;15.30;;;9.60;;
15002;SDS011;7597;53.590;10.020;2022-12-10T06:30:39;15.77;;;10.17;;
15002;SDS011;7597;53.590;10.020;2022-12-10T06:33:26;16.63;;;11.30;;
15002;SDS011;7597;53.590;10.020;2022-12-10T06:35:58;18.93;;;11.50;;
15002;SDS011;7597;53.590;10.020;2022-12-10T06:38:32;15.43;;;10.40;;
15002;SDS011;7597;53.590;10.020;2022-12-10T06:41:23;14.80;;;9.60;;
15002;SDS011;7597;53.590;10.020;2022-12-10T06:43:59;16.77;;;10.57;;
15002;SDS011;7597;53.590;10.020;2022-12-10T06:46:42;14.70;;;9.20;;
15002;SDS011;7597;53.590;10.020;2022-12-10T06:49:17;16.17;;;9.77;;
15002;SDS011;7597;53.590;10.020;2022-12-10T06:51:49;16.33;;;9.70;;
15002;SDS011;7597;53.590;10.020;2022-12-10T06:54:31;17.37;;;9.63;;
15002;SDS011;7597;53.590;10.020;2022-12-10T06:57:09;14.73;;;10.07;;
15002;SDS011;7597;53.590;10.020;2022-12-10T06:59:50;17.03;;;9.63;;
15002;SDS011;7597;53.590;10.020;2022-12-10T07:02:28;20.90;;;11.10;;
15002;SDS011;7597;53.590;10.020;2022-12-10T07:05:02;13.43;;;9.43;;
15002;SDS011;7597;53.590;10.020;2022-12-10T07:07:38;16.03;;;10.13;;
15002;SDS011;7597;53.590;10.020;2022-12-10T07:10:07;15.27;;;11.07;;
15002;SDS011;7597;53.590;10.020;2022-12-10T07:12:46;18.27;;;11.43;;
15002;SDS011;7597;53.590;10.020;2022-12-10T07:15:26;17.90;;;11.23;;
15002;SDS011;7597;53.590;10.020;2022-12-10T07:18:02;17.17;;;12.00;;
15002;SDS011;7597;53.590;10.020;2022-12-10T07:20:41;17.00;;;11.17;;
15002;SDS011;7597;53.590;10.020;2022-12-10T07:23:25;17.40;;;11.20;;
15002;SDS011;7597;53.590;10.020;2022-12-10T07:26:07;18.90;;;11.87;;
15002;SDS011;7597;53.590;10.020;2022-12-10T07:28:44;17.50;;;11.07;;
15002;SDS011;7597;53.590;10.020;2022-12-10T07:31:15;15.20;;;9.93;;
15002;SDS011;7597;53.590;10.020;2022-12-10T07:33:57;18.00;;;10.93;;
15002;SDS011;7597;53.590;10.020;2022-12-10T07:36:40;19.93;;;11.80;;
15002;SDS011;7597;53.590;10.020;2022-12-10T07:39:26;19.17;;;11.60;;
15002;SDS011;7597;53.590;10.020;2022-12-10T07:44:55;16.97;;;10.37;;
15002;SDS011;7597;53.590;10.020;2022-12-10T07:47:31;15.97;;;10.47;;
15002;SDS011;7597;53.590;10.020;2022-12-10T07:50:06;14.17;;;9.80;;
15002;SDS011;7597;53.590;10.020;2022-12-10T08:28:17;16.33;;;9.73;;
15002;SDS011;7597;53.590;10.020;2022-12-10T08:30:46;18.50;;;10.20;;
15002;SDS011;7597;53.590;10.020;2022-12-10T08:33:12;19.10;;;11.33;;
15002;SDS011;7597;53.590;10.020;2022-12-10T08:35:38;19.40;;;10.70;;
15002;SDS011;7597;53.590;10.020;2022-12-10T08:38:05;18.40;;;10.43;;
15002;SDS011;7597;53.590;10.020;2022-12-10T08:40:32;18.27;;;10.73;;
15002;SDS011;7597;53.590;10.020;2022-12-10T08:42:58;16.37;;;10.10;;
15002;SDS011;7597;53.590;10.020;2022-12-10T08:45:25;17.77;;;10.70;;
15002;SDS011;7597;53.590;10.020;2022-12-10T08:47:52;18.97;;;11.10;;
15002;SDS011;7597;53.590;10.020;2022-12-10T08:50:18;19.03;;;10.77;;
15002;SDS011;7597;53.590;10.020;2022-12-10T08:52:45;19.80;;;10.80;;
15002;SDS011;7597;53.590;10.020;2022-12-10T08:55:12;18.47;;;10.00;;
15002;SDS011;7597;53.590;10.020;2022-12-10T08:57:38;18.83;;;10.50;;
15002;SDS011;7597;53.590;10.020;2022-12-10T09:00:05;18.07;;;11.60;;
15002;SDS011;7597;53.590;10.020;2022-12-10T09:02:32;20.37;;;11.10;;
15002;SDS011;7597;53.590;10.020;2022-12-10T09:04:59;20.47;;;11.60;;
15002;SDS011;7597;53.590;10.020;2022-12-10T09:07:26;19.57;;;10.77;;
15002;SDS011;7597;53.590;10.020;2022-12-10T09:09:53;20.13;;;10.97;;
15002;SDS011;7597;53.590;10.020;2022-12-10T09:12:19;17.83;;;10.43;;
15002;SDS011;7597;53.590;10.020;2022-12-10T09:14:46;17.93;;;10.27;;
15002;SDS011;7597;53.590;10.020;2022-12-10T09:17:12;18.77;;;10.37;;
15002;SDS011;7597;53.590;10.020;2022-12-10T09:19:39;15.40;;;9.90;;
15002;SDS011;7597;53.590;10.020;2022-12-10T09:22:06;18.30;;;10.93;;
15002;SDS011;7597;53.590;10.020;2022-12-10T09:24:32;16.10;;;10.43;;
15002;SDS011;7597;53.590;10.020;2022-12-10T09:27:00;15.80;;;10.40;;
15002;SDS011;7597;53.590;10.020;2022-12-10T09:29:26;19.97;;;10.33;;
15002;SDS011;7597;53.590;10.020;2022-12-10T09:31:53;18.23;;;9.50;;
15002;SDS011;7597;53.590;10.020;2022-12-10T09:34:20;15.83;;;10.30;;
15002;SDS011;7597;53.590;10.020;2022-12-10T09:36:46;15.37;;;9.83;;
15002;SDS011;7597;53.590;10.020;2022-12-10T09:39:13;15.00;;;9.43;;
15002;SDS011;7597;53.590;10.020;2022-12-10T09:44:35;13.90;;;8.97;;
15002;SDS011;7597;53.590;10.020;2022-12-10T09:47:02;14.50;;;9.23;;
15002;SDS011;7597;53.590;10.020;2022-12-10T09:49:33;14.47;;;9.57;;
15002;SDS011;7597;53.590;10.020;2022-12-10T09:52:00;12.20;;;8.80;;
15002;SDS011;7597;53.590;10.020;2022-12-10T09:54:27;13.23;;;8.37;;
15002;SDS011;7597;53.590;10.020;2022-12-10T09:56:54;16.10;;;9.30;;
15002;SDS011;7597;53.590;10.020;2022-12-10T09:59:22;12.40;;;8.27;;
15002;SDS011;7597;53.590;10.020;2022-12-10T10:01:49;15.67;;;10.20;;
15002;SDS011;7597;53.590;10.020;2022-12-10T10:04:15;13.87;;;8.60;;
15002;SDS011;7597;53.590;10.020;2022-12-10T10:06:42;13.53;;;9.03;;
15002;SDS011;7597;53.590;10.020;2022-12-10T10:09:09;14.17;;;8.97;;
15002;SDS011;7597;53.590;10.020;2022-12-10T10:11:35;13.43;;;7.90;;
15002;SDS011;7597;53.590;10.020;2022-12-10T10:14:11;14.17;;;9.23;;
15002;SDS011;7597;53.590;10.020;2022-12-10T10:16:41;13.80;;;8.97;;
15002;SDS011;7597;53.590;10.020;2022-12-10T10:19:06;12.67;;;9.47;;
15002;SDS011;7597;53.590;10.020;2022-12-10T10:21:36;11.63;;;7.93;;
15002;SDS011;7597;53.590;10.020;2022-12-10T10:24:02;11.97;;;8.73;;
15002;SDS011;7597;53.590;10.020;2022-12-10T10:26:29;13.50;;;9.20;;
15002;SDS011;7597;53.590;10.020;2022-12-10T10:28:57;11.50;;;8.30;;
15002;SDS011;7597;53.590;10.020;2022-12-10T10:31:24;13.60;;;8.17;;
15002;SDS011;7597;53.590;10.020;2022-12-10T10:33:52;11.73;;;8.00;;
15002;SDS011;7597;53.590;10.020;2022-12-10T10:36:17;11.90;;;7.60;;
15002;SDS011;7597;53.590;10.020;2022-12-10T10:38:48;12.13;;;8.50;;
15002;SDS011;7597;53.590;10.020;2022-12-10T10:41:14;10.53;;;7.67;;
15002;SDS011;7597;53.590;10.020;2022-12-10T10:43:41;9.67;;;6.77;;
15002;SDS011;7597;53.590;10.020;2022-12-10T10:46:14;8.53;;;7.37;;
15002;SDS011;7597;53.590;10.020;2022-12-10T10:48:39;11.03;;;7.87;;
15002;SDS011;7597;53.590;10.020;2022-12-10T10:51:07;12.27;;;8.07;;
15002;SDS011;7597;53.590;10.020;2022-12-10T10:53:42;10.60;;;7.47;;
15002;SDS011;7597;53.590;10.020;2022-12-10T10:56:11;9.80;;;7.23;;
15002;SDS011;7597;53.590;10.020;2022-12-10T11:01:13;10.10;;;7.30;;
15002;SDS011;7597;53.590;10.020;2022-12-10T11:03:45;12.33;;;7.73;;
15002;SDS011;7597;53.590;10.020;2022-12-10T11:06:07;11.40;;;6.33;;
15002;SDS011;7597;53.590;10.020;2022-12-10T11:08:34;9.00;;;6.93;;
15002;SDS011;7597;53.590;10.020;2022-12-10T11:11:03;11.37;;;7.30;;
15002;SDS011;7597;53.590;10.020;2022-12-10T11:13:28;12.43;;;7.47;;
15002;SDS011;7597;53.590;10.020;2022-12-10T11:15:56;11.40;;;7.37;;
15002;SDS011;7597;53.590;10.020;2022-12-10T11:18:26;10.53;;;7.23;;
15002;SDS011;7597;53.590;10.020;2022-12-10T11:23:27;12.83;;;8.13;;
15002;SDS011;7597;53.590;10.020;2022-12-10T11:26:03;10.50;;;7.00;;
15002;SDS011;7597;53.590;10.020;2022-12-10T11:31:26;12.17;;;8.10;;
15002;SDS011;7597;53.590;10.020;2022-12-10T11:36:27;12.50;;;8.83;;
15002;SDS011;7597;53.590;10.020;2022-12-10T11:39:02;10.07;;;7.47;;
15002;SDS011;7597;53.590;10.020;2022-12-10T11:41:35;11.23;;;7.53;;
15002;SDS011;7597;53.590;10.020;2022-12-10T11:44:21;10.20;;;7.53;;
15002;SDS011;7597;53.590;10.020;2022-12-10T11:49:27;11.30;;;7.57;;
15002;SDS011;7597;53.590;10.020;2022-12-10T11:52:06;11.10;;;7.63;;
15002;SDS011;7597;53.590;10.020;2022-12-10T11:54:38;9.37;;;7.27;;
15002;SDS011;7597;53.590;10.020;2022-12-10T11:57:03;13.57;;;9.27;;
15002;SDS011;7597;53.590;10.020;2022-12-10T11:59:34;10.90;;;7.27;;
15002;SDS011;7597;53.590;10.020;2022-12-10T12:05:08;11.90;;;8.20;;
15002;SDS011;7597;53.590;10.020;2022-12-10T12:07:38;11.77;;;8.13;;
15002;SDS011;7597;53.590;10.020;2022-12-10T12:10:23;9.40;;;7.17;;
15002;SDS011;7597;53.590;10.020;2022-12-10T12:13:00;10.27;;;8.00;;
15002;SDS011;7597;53.590;10.020;2022-12-10T12:15:33;11.83;;;7.50;;
15002;SDS011;7597;53.590;10.020;2022-12-10T12:18:18;9.83;;;7.47;;
15002;SDS011;7597;53.590;10.020;2022-12-10T12:20:44;10.83;;;7.77;;
15002;SDS011;7597;53.590;10.020;2022-12-10T12:23:15;12.30;;;7.93;;
15002;SDS011;7597;53.590;10.020;2022-12-10T12:25:44;11.50;;;8.30;;
15002;SDS011;7597;53.590;10.020;2022-12-10T12:28:12;11.37;;;8.47;;
15002;SDS011;7597;53.590;10.020;2022-12-10T12:30:38;13.57;;;8.63;;
15002;SDS011;7597;53.590;10.020;2022-12-10T12:33:08;11.90;;;8.60;;
15002;SDS011;7597;53.590;10.020;2022-12-10T12:35:38;14.37;;;9.10;;
15002;SDS011;7597;53.590;10.020;2022-12-10T12:40:48;11.93;;;8.73;;
15002;SDS011;7597;53.590;10.020;2022-12-10T12:43:16;12.03;;;8.07;;
15002;SDS011;7597;53.590;10.020;2022-12-10T12:45:44;10.60;;;8.40;;
15002;SDS011;7597;53.590;10.020;2022-12-10T12:48:14;13.40;;;8.90;;
15002;SDS011;7597;53.590;10.020;2022-12-10T12:51:00;11.60;;;8.17;;
15002;SDS011;7597;53.590;10.020;2022-12-10T12:53:26;14.13;;;9.47;;
15002;SDS011;7597;53.590;10.020;2022-12-10T12:56:00;12.63;;;8.93;;
15002;SDS011;7597;53.590;10.020;2022-12-10T13:01:08;11.57;;;8.33;;
15002;SDS011;7597;53.590;10.020;2022-12-10T13:03:39;12.53;;;7.53;;
15002;SDS011;7597;53.590;10.020;2022-12-10T13:06:12;11.97;;;8.97;;
15002;SDS011;7597;53.590;10.020;2022-12-10T13:08:42;12.67;;;9.10;;
15002;SDS011;7597;53.590;10.020;2022-12-10T13:11:18;12.17;;;9.07;;
15002;SDS011;7597;53.590;10.020;2022-12-10T13:21:57;13.43;;;9.03;;
15002;SDS011;7597;53.590;10.020;2022-12-10T13:27:18;14.60;;;10.13;;
15002;SDS011;7597;53.590;10.020;2022-12-10T13:29:45;13.47;;;9.40;;
15002;SDS011;7597;53.590;10.020;2022-12-10T13:32:23;12.90;;;9.03;;
15002;SDS011;7597;53.590;10.020;2022-12-10T13:37:30;12.87;;;8.93;;
15002;SDS011;7597;53.590;10.020;2022-12-10T13:42:30;11.80;;;8.90;;
15002;SDS011;7597;53.590;10.020;2022-12-10T13:45:16;15.57;;;9.40;;
15002;SDS011;7597;53.590;10.020;2022-12-10T13:47:47;13.43;;;9.40;;
15002;SDS011;7597;53.590;10.020;2022-12-10T13:50:23;13.10;;;9.40;;
15002;SDS011;7597;53.590;10.020;2022-12-10T13:52:57;13.47;;;8.73;;
15002;SDS011;7597;53.590;10.020;2022-12-10T13:55:39;12.60;;;9.87;;
15002;SDS011;7597;53.590;10.020;2022-12-10T13:58:17;12.17;;;9.20;;
15002;SDS011;7597;53.590;10.020;2022-12-10T14:01:05;13.27;;;9.27;;
15002;SDS011;7597;53.590;10.020;2022-12-10T14:06:22;12.07;;;8.77;;
15002;SDS011;7597;53.590;10.020;2022-12-10T14:08:52;12.40;;;8.30;;
15002;SDS011;7597;53.590;10.020;2022-12-10T14:11:22;13.17;;;8.57;;
15002;SDS011;7597;53.590;10.020;2022-12-10T14:13:53;15.03;;;10.20;;
15002;SDS011;7597;53.590;10.020;2022-12-10T14:16:14;13.37;;;9.47;;
15002;SDS011;7597;53.590;10.020;2022-12-10T14:18:41;15.53;;;9.87;;
15002;SDS011;7597;53.590;10.020;2022-12-10T14:21:07;16.07;;;9.60;;
15002;SDS011;7597;53.590;10.020;2022-12-10T14:23:34;15.40;;;9.67;;
15002;SDS011;7597;53.590;10.020;2022-12-10T14:26:09;13.17;;;9.53;;
15002;SDS011;7597;53.590;10.020;2022-12-10T14:28:36;16.27;;;9.73;;
15002;SDS011;7597;53.590;10.020;2022-12-10T14:30:59;13.90;;;9.53;;
15002;SDS011;7597;53.590;10.020;2022-12-10T14:33:26;13.57;;;9.20;;
15002;SDS011;7597;53.590;10.020;2022-12-10T14:35:52;13.73;;;9.43;;
15002;SDS011;7597;53.590;10.020;2022-12-10T14:38:21;14.97;;;10.00;;
15002;SDS011;7597;53.590;10.020;2022-12-10T14:40:50;14.80;;;9.70;;
15002;SDS011;7597;53.590;10.020;2022-12-10T14:43:18;12.77;;;9.50;;
15002;SDS011;7597;53.590;10.020;2022-12-10T14:45:46;15.23;;;10.40;;
15002;SDS011;7597;53.590;10.020;2022-12-10T14:48:11;15.00;;;10.07;;
15002;SDS011;7597;53.590;10.020;2022-12-10T14:50:38;14.23;;;10.70;;
15002;SDS011;7597;53.590;10.020;2022-12-10T14:53:05;16.07;;;10.33;;
15002;SDS011;7597;53.590;10.020;2022-12-10T14:55:33;16.17;;;10.50;;
15002;SDS011;7597;53.590;10.020;2022-12-10T14:57:59;12.90;;;9.40;;
15002;SDS011;7597;53.590;10.020;2022-12-10T15:00:24;16.17;;;10.80;;
15002;SDS011;7597;53.590;10.020;2022-12-10T15:02:53;19.20;;;11.30;;
15002;SDS011;7597;53.590;10.020;2022-12-10T15:05:19;14.67;;;9.77;;
15002;SDS011;7597;53.590;10.020;2022-12-10T15:10:20;13.63;;;9.90;;
15002;SDS011;7597;53.590;10.020;2022-12-10T15:12:45;15.63;;;10.00;;
15002;SDS011;7597;53.590;10.020;2022-12-10T15:15:13;15.60;;;9.77;;
15002;SDS011;7597;53.590;10.020;2022-12-10T15:17:42;13.13;;;9.50;;
15002;SDS011;7597;53.590;10.020;2022-12-10T15:20:09;14.30;;;10.27;;
15002;SDS011;7597;53.590;10.020;2022-12-10T15:22:35;16.30;;;10.93;;
15002;SDS011;7597;53.590;10.020;2022-12-10T15:27:35;17.37;;;11.50;;
15002;SDS011;7597;53.590;10.020;2022-12-10T15:30:20;14.57;;;10.00;;
15002;SDS011;7597;53.590;10.020;2022-12-10T15:32:29;15.13;;;10.47;;
15002;SDS011;7597;53.590;10.020;2022-12-10T15:34:57;15.87;;;10.47;;
15002;SDS011;7597;53.590;10.020;2022-12-10T15:37:25;17.27;;;11.20;;
15002;SDS011;7597;53.590;10.020;2022-12-10T15:39:54;15.17;;;10.87;;
15002;SDS011;7597;53.590;10.020;2022-12-10T15:42:41;15.10;;;10.27;;
15002;SDS011;7597;53.590;10.020;2022-12-10T15:45:14;16.83;;;10.40;;
15002;SDS011;7597;53.590;10.020;2022-12-10T15:47:41;15.63;;;10.63;;
15002;SDS011;7597;53.590;10.020;2022-12-10T15:50:08;18.00;;;12.17;;
15002;SDS011;7597;53.590;10.020;2022-12-10T15:52:34;16.47;;;11.47;;
15002;SDS011;7597;53.590;10.020;2022-12-10T15:55:01;16.10;;;10.47;;
15002;SDS011;7597;53.590;10.020;2022-12-10T15:57:31;25.27;;;16.00;;
15002;SDS011;7597;53.590;10.020;2022-12-10T15:59:55;21.50;;;13.37;;
15002;SDS011;7597;53.590;10.020;2022-12-10T16:02:26;25.10;;;14.87;;
15002;SDS011;7597;53.590;10.020;2022-12-10T16:05:02;25.07;;;14.87;;
15002;SDS011;7597;53.590;10.020;2022-12-10T16:07:44;26.80;;;15.37;;
15002;SDS011;7597;53.590;10.020;2022-12-10T16:10:11;28.40;;;15.77;;
15002;SDS011;7597;53.590;10.020;2022-12-10T16:12:37;24.67;;;14.97;;
15002;SDS011;7597;53.590;10.020;2022-12-10T16:15:04;19.23;;;11.20;;
15002;SDS011;7597;53.590;10.020;2022-12-10T16:17:31;19.37;;;12.10;;
15002;SDS011;7597;53.590;10.020;2022-12-10T16:20:00;18.27;;;11.17;;
15002;SDS011;7597;53.590;10.020;2022-12-10T16:22:26;21.73;;;12.17;;
15002;SDS011;7597;53.590;10.020;2022-12-10T16:24:53;16.70;;;10.43;;
15002;SDS011;7597;53.590;10.020;2022-12-10T16:27:19;16.80;;;10.97;;
15002;SDS011;7597;53.590;10.020;2022-12-10T16:29:46;18.90;;;11.33;;
15002;SDS011;7597;53.590;10.020;2022-12-10T16:32:12;20.67;;;12.23;;
15002;SDS011;7597;53.590;10.020;2022-12-10T16:34:39;21.40;;;12.37;;
15002;SDS011;7597;53.590;10.020;2022-12-10T16:37:06;19.20;;;11.80;;
15002;SDS011;7597;53.590;10.020;2022-12-10T16:39:32;17.80;;;11.47;;
15002;SDS011;7597;53.590;10.020;2022-12-10T16:41:59;17.97;;;10.80;;
15002;SDS011;7597;53.590;10.020;2022-12-10T16:44:26;18.27;;;10.97;;
15002;SDS011;7597;53.590;10.020;2022-12-10T16:46:52;16.40;;;11.43;;
15002;SDS011;7597;53.590;10.020;2022-12-10T16:49:19;16.93;;;10.93;;
15002;SDS011;7597;53.590;10.020;2022-12-10T16:51:46;17.40;;;11.47;;
15002;SDS011;7597;53.590;10.020;2022-12-10T16:54:12;17.57;;;11.80;;
15002;SDS011;7597;53.590;10.020;2022-12-10T16:56:39;18.83;;;11.80;;
15002;SDS011;7597;53.590;10.020;2022-12-10T16:59:06;19.90;;;12.07;;
15002;SDS011;7597;53.590;10.020;2022-12-10T17:01:33;18.10;;;11.37;;
15002;SDS011;7597;53.590;10.020;2022-12-10T17:04:00;18.60;;;10.83;;
15002;SDS011;7597;53.590;10.020;2022-12-10T17:06:26;16.20;;;11.00;;
15002;SDS011;7597;53.590;10.020;2022-12-10T17:08:53;15.03;;;10.10;;
15002;SDS011;7597;53.590;10.020;2022-12-10T17:11:24;17.23;;;10.87;;
15002;SDS011;7597;53.590;10.020;2022-12-10T17:13:55;18.00;;;11.03;;
15002;SDS011;7597;53.590;10.020;2022-12-10T17:16:22;21.23;;;11.97;;
15002;SDS011;7597;53.590;10.020;2022-12-10T17:18:48;17.90;;;11.70;;
15002;SDS011;7597;53.590;10.020;2022-12-10T17:21:15;19.63;;;11.70;;
15002;SDS011;7597;53.590;10.020;2022-12-10T17:23:42;20.10;;;11.90;;
15002;SDS011;7597;53.590;10.020;2022-12-10T17:26:11;20.73;;;11.80;;
15002;SDS011;7597;53.590;10.020;2022-12-10T17:28:35;19.87;;;11.50;;
15002;SDS011;7597;53.590;10.020;2022-12-10T17:31:02;16.40;;;10.53;;
15002;SDS011;7597;53.590;10.020;2022-12-10T17:33:28;19.07;;;11.70;;
15002;SDS011;7597;53.590;10.020;2022-12-10T17:35:55;18.90;;;11.03;;
15002;SDS011;7597;53.590;10.020;2022-12-10T17:38:23;19.43;;;11.70;;
15002;SDS011;7597;53.590;10.020;2022-12-10T17:40:48;19.87;;;11.50;;
15002;SDS011;7597;53.590;10.020;2022-12-10T17:43:15;18.63;;;11.57;;